Time;durP1;ratioP1;P1;durP2;ratioP2;P2;SDS_P1;SDS_P2;PMS_P1;PMS_P2;Temp;Humidity;BMP_temperature;BMP_pressure;BME280_temperature;BME280_humidity;BME280_pressure;Samples;Min_cycle;Max_cycle;Signal;HPM_P1;HPM_P2
2022/01/24 00:01:11;;;;;;;169.55;65.57;;;;;;;;;;6270804;28;20005;-73
2022/01/24 00:04:11;;;;;;;130.30;55.57;;;;;;;;;;6271801;28;20009;-73
2022/01/24 00:07:11;;;;;;;158.10;74.37;;;;;;;;;;6247892;28;20365;-73
2022/01/24 00:10:17;;;;;;;189.63;84.10;;;;;;;;;;6269968;28;20480;-73
2022/01/24 00:16:31;;;;;;;152.50;67.60;;;;;;;;;;6273523;28;20021;-73
2022/01/24 00:29:29;;;;;;;146.57;62.90;;;;;;;;;;6272090;28;20087;-72
2022/01/24 00:32:29;;;;;;;158.30;58.73;;;;;;;;;;6272525;28;20023;-72
2022/01/24 00:35:29;;;;;;;129.77;57.07;;;;;;;;;;6271348;28;20048;-72
2022/01/24 00:38:32;;;;;;;136.63;54.80;;;;;;;;;;6232105;28;20440;-72
2022/01/24 00:41:40;;;;;;;149.10;60.13;;;;;;;;;;6249930;28;20013;-72
2022/01/24 00:57:24;;;;;;;159.10;62.75;;;;;;;;;;6250351;28;20554;-71
2022/01/24 01:00:24;;;;;;;158.87;65.30;;;;;;;;;;6259662;28;20118;-71
2022/01/24 01:03:25;;;;;;;123.00;56.10;;;;;;;;;;6255929;28;20014;-71
2022/01/24 01:06:25;;;;;;;151.23;56.53;;;;;;;;;;6247972;28;20025;-71
2022/01/24 01:19:22;;;;;;;119.78;51.72;;;;;;;;;;6271973;28;20044;-70
2022/01/24 01:22:22;;;;;;;127.07;52.97;;;;;;;;;;6271109;28;20169;-70
2022/01/24 01:25:23;;;;;;;129.63;54.07;;;;;;;;;;6270458;28;20013;-70
2022/01/24 01:28:25;;;;;;;135.13;52.50;;;;;;;;;;6270556;28;20060;-70
2022/01/24 01:31:56;;;;;;;;;;;;;;;;;;6269923;28;20124;-70
2022/01/24 01:35:11;;;;;;;123.20;50.63;;;;;;;;;;6269426;28;20260;-70
2022/01/24 01:38:39;;;;;;;128.70;52.40;;;;;;;;;;6251461;28;20079;-70
2022/01/24 01:55:12;;;;;;;152.02;57.78;;;;;;;;;;6269392;28;20025;-70
2022/01/24 01:58:13;;;;;;;140.45;58.92;;;;;;;;;;6245387;28;20017;-70
2022/01/24 02:01:13;;;;;;;151.25;60.83;;;;;;;;;;6254768;28;20064;-70
2022/01/24 02:04:14;;;;;;;133.23;55.55;;;;;;;;;;6267855;28;20025;-70
2022/01/24 02:07:17;;;;;;;129.97;52.97;;;;;;;;;;6246088;28;20493;-70
2022/01/24 02:10:18;;;;;;;137.75;56.28;;;;;;;;;;6268446;28;20485;-70
2022/01/24 02:13:19;;;;;;;136.40;58.85;;;;;;;;;;6270193;28;20489;-70
2022/01/24 02:16:32;;;;;;;119.37;52.20;;;;;;;;;;6252510;28;20077;-70
2022/01/24 02:22:46;;;;;;;122.75;52.60;;;;;;;;;;6270560;28;20017;-70
2022/01/24 02:25:47;;;;;;;106.85;43.85;;;;;;;;;;6270685;28;20028;-70
2022/01/24 02:29:01;;;;;;;155.00;60.40;;;;;;;;;;6252894;28;20049;-70
2022/01/24 02:32:02;;;;;;;122.97;54.65;;;;;;;;;;6246336;28;20073;-70
2022/01/24 02:35:02;;;;;;;127.77;55.90;;;;;;;;;;6250037;28;20376;-70
2022/01/24 02:38:09;;;;;;;155.80;58.70;;;;;;;;;;6252767;28;20028;-70
2022/01/24 02:54:32;;;;;;;139.73;54.47;;;;;;;;;;6269873;28;20027;-70
2022/01/24 02:57:32;;;;;;;140.10;55.67;;;;;;;;;;6251227;28;20406;-70
2022/01/24 03:00:33;;;;;;;140.30;57.67;;;;;;;;;;6268678;28;20428;-70
2022/01/24 03:03:34;;;;;;;109.73;47.07;;;;;;;;;;6268346;28;20017;-70
2022/01/24 03:06:34;;;;;;;148.20;55.35;;;;;;;;;;6249611;28;20049;-70
2022/01/24 03:09:36;;;;;;;148.00;59.17;;;;;;;;;;6261054;28;20098;-70
2022/01/24 03:12:45;;;;;;;126.28;53.17;;;;;;;;;;6266973;28;20017;-69
2022/01/24 03:15:46;;;;;;;122.35;53.70;;;;;;;;;;6268026;28;20488;-70
2022/01/24 03:18:46;;;;;;;157.80;65.47;;;;;;;;;;6259433;28;20021;-70
2022/01/24 03:21:47;;;;;;;182.80;74.73;;;;;;;;;;6246903;28;20512;-70
2022/01/24 03:24:49;;;;;;;158.52;69.45;;;;;;;;;;6243039;28;20059;-70
2022/01/24 03:27:49;;;;;;;154.20;67.30;;;;;;;;;;6242764;28;20119;-70
2022/01/24 03:30:49;;;;;;;163.43;77.57;;;;;;;;;;6258874;28;20024;-70
2022/01/24 03:33:49;;;;;;;158.20;66.47;;;;;;;;;;6267362;28;20102;-70
2022/01/24 03:36:49;;;;;;;160.97;67.80;;;;;;;;;;6254263;28;20025;-69
2022/01/24 03:39:50;;;;;;;123.90;54.60;;;;;;;;;;6224912;28;20017;-69
2022/01/24 03:42:50;;;;;;;123.17;50.50;;;;;;;;;;6242277;28;20022;-69
2022/01/24 03:46:12;;;;;;;113.57;47.73;;;;;;;;;;6242687;28;20485;-69
2022/01/24 03:49:44;;;;;;;115.22;45.97;;;;;;;;;;6254673;28;20041;-69
2022/01/24 03:52:31;;;;;;;112.43;46.47;;;;;;;;;;6242469;28;20104;-69
2022/01/24 03:55:32;;;;;;;99.53;44.27;;;;;;;;;;6242825;28;20388;-69
2022/01/24 03:58:32;;;;;;;111.73;47.17;;;;;;;;;;6242501;28;20052;-69
2022/01/24 04:01:32;;;;;;;120.83;46.83;;;;;;;;;;6264091;28;20033;-70
2022/01/24 04:04:33;;;;;;;109.07;38.93;;;;;;;;;;6265088;28;20060;-69
2022/01/24 04:07:33;;;;;;;95.57;37.17;;;;;;;;;;6243155;28;20026;-70
2022/01/24 04:10:41;;;;;;;97.97;44.23;;;;;;;;;;6267257;28;20025;-69
2022/01/24 04:13:44;;;;;;;94.90;39.53;;;;;;;;;;6266777;28;20028;-70
2022/01/24 04:16:52;;;;;;;113.88;43.42;;;;;;;;;;6267301;28;20028;-70
2022/01/24 04:22:55;;;;;;;106.57;43.47;;;;;;;;;;6267974;28;20025;-70
2022/01/24 04:25:55;;;;;;;105.72;44.13;;;;;;;;;;6271543;28;20104;-70
2022/01/24 04:28:56;;;;;;;109.95;43.58;;;;;;;;;;6271671;28;20477;-70
2022/01/24 04:31:56;;;;;;;97.20;40.10;;;;;;;;;;6271628;28;20013;-70
2022/01/24 04:34:56;;;;;;;91.93;39.70;;;;;;;;;;6271162;28;20017;-70
2022/01/24 04:37:56;;;;;;;103.27;42.53;;;;;;;;;;6271000;28;20420;-70
2022/01/24 04:41:00;;;;;;;116.70;45.50;;;;;;;;;;6271128;28;20095;-69
2022/01/24 04:44:15;;;;;;;97.85;39.85;;;;;;;;;;6270808;28;20025;-69
2022/01/24 04:47:29;;;;;;;114.78;43.15;;;;;;;;;;6252949;28;20063;-70
2022/01/24 04:57:09;;;;;;;94.03;41.08;;;;;;;;;;6270769;28;20025;-70
2022/01/24 05:00:10;;;;;;;114.38;40.78;;;;;;;;;;6270192;28;20680;-70
2022/01/24 05:03:10;;;;;;;100.68;43.10;;;;;;;;;;6270027;28;20027;-69
2022/01/24 05:06:10;;;;;;;109.93;41.33;;;;;;;;;;6237063;28;20017;-69
2022/01/24 05:09:11;;;;;;;109.53;44.53;;;;;;;;;;6260001;28;20451;-69
2022/01/24 05:25:04;;;;;;;93.72;44.95;;;;;;;;;;6245388;28;20068;-69
2022/01/24 05:28:05;;;;;;;97.23;44.30;;;;;;;;;;6245184;28;20037;-69
2022/01/24 05:31:05;;;;;;;118.37;50.27;;;;;;;;;;6263437;28;20468;-69
2022/01/24 05:34:05;;;;;;;107.40;44.70;;;;;;;;;;6268909;28;20075;-69
2022/01/24 05:37:07;;;;;;;112.20;45.23;;;;;;;;;;6236809;28;20529;-70
2022/01/24 05:40:08;;;;;;;108.95;45.92;;;;;;;;;;6245149;28;20024;-70
2022/01/24 05:43:08;;;;;;;103.73;43.73;;;;;;;;;;6244679;28;20021;-69
2022/01/24 05:46:08;;;;;;;96.43;44.93;;;;;;;;;;6253995;28;20017;-70
2022/01/24 05:49:08;;;;;;;89.30;39.47;;;;;;;;;;6269478;28;20033;-70
2022/01/24 05:52:09;;;;;;;84.23;37.07;;;;;;;;;;6266066;28;20028;-70
2022/01/24 05:55:10;;;;;;;96.67;38.50;;;;;;;;;;6267104;28;20365;-70
2022/01/24 05:58:10;;;;;;;99.83;42.00;;;;;;;;;;6244651;28;20647;-69
2022/01/24 06:01:10;;;;;;;90.50;41.17;;;;;;;;;;6255641;28;20017;-69
2022/01/24 06:04:10;;;;;;;101.60;40.93;;;;;;;;;;6257180;28;20454;-70
2022/01/24 06:07:11;;;;;;;105.57;46.23;;;;;;;;;;6259484;28;20502;-69
2022/01/24 06:10:11;;;;;;;106.17;44.27;;;;;;;;;;6258518;28;20036;-70
2022/01/24 06:13:11;;;;;;;109.73;43.80;;;;;;;;;;6234599;28;20067;-70
2022/01/24 06:16:11;;;;;;;91.73;39.07;;;;;;;;;;6264808;28;20111;-70
2022/01/24 06:19:11;;;;;;;88.90;37.57;;;;;;;;;;6262397;28;20112;-70
2022/01/24 06:22:12;;;;;;;97.90;37.07;;;;;;;;;;6265182;28;20013;-69
2022/01/24 06:25:13;;;;;;;84.47;35.07;;;;;;;;;;6259621;28;20021;-69
2022/01/24 06:28:13;;;;;;;;;;;;;;;;;;6269034;28;20053;-70
2022/01/24 06:31:14;;;;;;;82.30;32.15;;;;;;;;;;6266563;28;19911;-70
2022/01/24 06:34:14;;;;;;;87.13;34.53;;;;;;;;;;6254001;28;20071;-70
2022/01/24 06:37:14;;;;;;;89.37;29.60;;;;;;;;;;6257144;28;20021;-70
2022/01/24 06:40:14;;;;;;;90.53;41.60;;;;;;;;;;6262502;28;20437;-70
2022/01/24 06:43:15;;;;;;;95.00;47.13;;;;;;;;;;6262445;28;20017;-70
2022/01/24 06:46:15;;;;;;;70.77;31.47;;;;;;;;;;6249726;28;20025;-70
2022/01/24 06:49:15;;;;;;;114.50;50.13;;;;;;;;;;6267722;28;20089;-70
2022/01/24 06:52:16;;;;;;;93.00;42.25;;;;;;;;;;6251968;28;20024;-70
2022/01/24 06:55:16;;;;;;;110.47;44.17;;;;;;;;;;6248511;28;20024;-70
2022/01/24 06:58:18;;;;;;;118.47;52.57;;;;;;;;;;6245148;28;20144;-70
2022/01/24 07:01:18;;;;;;;105.22;53.45;;;;;;;;;;6252626;28;20044;-70
2022/01/24 07:04:18;;;;;;;90.87;45.37;;;;;;;;;;6261112;28;20047;-70
2022/01/24 07:07:19;;;;;;;89.90;39.73;;;;;;;;;;6257884;28;20060;-70
2022/01/24 07:10:19;;;;;;;86.97;41.37;;;;;;;;;;6257937;28;20052;-70
2022/01/24 07:13:20;;;;;;;91.43;41.13;;;;;;;;;;6263175;28;20112;-70
2022/01/24 07:16:21;;;;;;;85.78;39.95;;;;;;;;;;6260467;28;20111;-70
2022/01/24 07:19:26;;;;;;;91.50;40.70;;;;;;;;;;6263937;28;20452;-70
2022/01/24 07:22:27;;;;;;;102.05;39.63;;;;;;;;;;6246009;28;20464;-70
2022/01/24 07:25:27;;;;;;;87.90;38.17;;;;;;;;;;6252148;28;20033;-70
2022/01/24 07:28:27;;;;;;;92.73;38.07;;;;;;;;;;6256524;28;20147;-70
2022/01/24 07:31:27;;;;;;;110.82;46.60;;;;;;;;;;6266143;28;20068;-70
2022/01/24 07:34:27;;;;;;;128.63;51.10;;;;;;;;;;6259915;28;20064;-70
2022/01/24 07:37:28;;;;;;;117.55;49.53;;;;;;;;;;6248032;28;20029;-70
2022/01/24 07:40:28;;;;;;;119.55;52.72;;;;;;;;;;6248951;28;20283;-70
2022/01/24 07:43:28;;;;;;;112.03;47.37;;;;;;;;;;6257582;28;20032;-70
2022/01/24 07:46:29;;;;;;;126.63;49.25;;;;;;;;;;6253870;28;20413;-70
2022/01/24 07:49:31;;;;;;;116.47;49.37;;;;;;;;;;6250622;28;20122;-70
2022/01/24 07:52:31;;;;;;;100.05;46.10;;;;;;;;;;6243780;28;20017;-70
2022/01/24 07:55:33;;;;;;;115.57;50.20;;;;;;;;;;6246893;28;20029;-70
2022/01/24 07:58:33;;;;;;;110.88;46.55;;;;;;;;;;6257694;28;20086;-68
2022/01/24 08:01:34;;;;;;;103.68;46.70;;;;;;;;;;6261506;28;20025;-68
2022/01/24 08:04:34;;;;;;;114.05;46.92;;;;;;;;;;6249714;28;20438;-68
2022/01/24 08:07:35;;;;;;;94.57;41.47;;;;;;;;;;6259146;28;20103;-68
2022/01/24 08:10:35;;;;;;;90.35;40.25;;;;;;;;;;6262505;28;20112;-68
2022/01/24 08:13:37;;;;;;;90.63;41.80;;;;;;;;;;6257727;28;20045;-69
2022/01/24 08:16:39;;;;;;;104.15;44.17;;;;;;;;;;6250413;28;20033;-69
2022/01/24 08:19:39;;;;;;;;;;;;;;;;;;6246969;28;20041;-69
2022/01/24 08:22:40;;;;;;;88.60;43.22;;;;;;;;;;6228787;28;20043;-69
2022/01/24 08:25:40;;;;;;;83.78;40.40;;;;;;;;;;6228423;28;20033;-69
2022/01/24 08:28:40;;;;;;;95.75;45.55;;;;;;;;;;6228654;28;20437;-69
2022/01/24 08:31:40;;;;;;;197.65;76.78;;;;;;;;;;6269399;28;20043;-69
2022/01/24 08:34:41;;;;;;;112.57;57.95;;;;;;;;;;6260622;28;20035;-69
2022/01/24 08:37:41;;;;;;;101.78;53.13;;;;;;;;;;6264121;28;20013;-69
2022/01/24 08:40:42;;;;;;;102.65;50.10;;;;;;;;;;6264235;28;20032;-69
2022/01/24 08:46:48;;;;;;;104.53;50.75;;;;;;;;;;6257488;28;20365;-69
2022/01/24 08:49:49;;;;;;;98.03;44.90;;;;;;;;;;6259364;28;20040;-69
2022/01/24 08:52:49;;;;;;;73.53;36.30;;;;;;;;;;6252696;28;20492;-69
2022/01/24 08:55:49;;;;;;;65.40;28.97;;;;;;;;;;6245241;28;20025;-69
2022/01/24 08:58:49;;;;;;;70.15;31.63;;;;;;;;;;6243518;28;20790;-69
2022/01/24 09:01:50;;;;;;;64.77;30.03;;;;;;;;;;6269262;28;20029;-69
2022/01/24 09:04:50;;;;;;;80.40;38.45;;;;;;;;;;6266484;28;20263;-69
2022/01/24 09:07:51;;;;;;;83.30;39.10;;;;;;;;;;6245605;28;20140;-69
2022/01/24 09:10:52;;;;;;;88.18;39.90;;;;;;;;;;6253740;28;20033;-70
2022/01/24 09:13:52;;;;;;;91.22;39.85;;;;;;;;;;6241787;28;20056;-70
2022/01/24 09:16:52;;;;;;;74.93;36.10;;;;;;;;;;6261183;28;20503;-69
2022/01/24 09:19:53;;;;;;;89.03;40.13;;;;;;;;;;6261855;28;20279;-70
2022/01/24 09:22:53;;;;;;;88.47;40.73;;;;;;;;;;6251810;28;20279;-70
2022/01/24 09:25:53;;;;;;;94.95;44.17;;;;;;;;;;6243661;28;20256;-70
2022/01/24 09:28:54;;;;;;;98.43;51.05;;;;;;;;;;6244648;28;20472;-72
2022/01/24 09:31:54;;;;;;;81.67;42.67;;;;;;;;;;6264585;28;20027;-70
2022/01/24 09:34:55;;;;;;;52.25;29.30;;;;;;;;;;6260573;28;20263;-70
2022/01/24 09:37:55;;;;;;;59.67;31.30;;;;;;;;;;6257893;28;20496;-70
2022/01/24 09:40:56;;;;;;;69.47;32.92;;;;;;;;;;6269990;28;20263;-70
2022/01/24 09:43:56;;;;;;;60.33;29.83;;;;;;;;;;6270251;28;20059;-70
2022/01/24 09:46:57;;;;;;;58.27;29.13;;;;;;;;;;6270357;28;20017;-70
2022/01/24 09:49:57;;;;;;;53.50;24.75;;;;;;;;;;6269863;28;20719;-71
2022/01/24 09:52:58;;;;;;;50.40;25.08;;;;;;;;;;6270393;28;20028;-70
2022/01/24 09:56:04;;;;;;;50.17;24.88;;;;;;;;;;6269999;28;20020;-71
2022/01/24 09:59:04;;;;;;;47.38;22.33;;;;;;;;;;6269750;28;20036;-70
2022/01/24 10:02:04;;;;;;;49.30;25.77;;;;;;;;;;6258522;28;20021;-70
2022/01/24 10:05:12;;;;;;;53.38;29.45;;;;;;;;;;6265087;28;20568;-70
2022/01/24 10:08:13;;;;;;;52.28;27.98;;;;;;;;;;6257437;28;20468;-71
2022/01/24 10:11:16;;;;;;;61.50;27.95;;;;;;;;;;6268556;28;20035;-71
2022/01/24 10:17:52;;;;;;;65.95;30.77;;;;;;;;;;6269093;28;20033;-70
2022/01/24 10:20:52;;;;;;;53.33;25.80;;;;;;;;;;6269099;28;20083;-70
2022/01/24 10:23:54;;;;;;;55.97;28.77;;;;;;;;;;6268732;28;20020;-70
2022/01/24 10:27:07;;;;;;;58.00;33.47;;;;;;;;;;6269127;28;20468;-71
2022/01/24 10:30:10;;;;;;;62.95;32.17;;;;;;;;;;6266760;28;20507;-72
2022/01/24 10:33:12;;;;;;;80.45;42.85;;;;;;;;;;6267088;28;20032;-71
2022/01/24 10:36:16;;;;;;;71.50;38.55;;;;;;;;;;6262177;28;20017;-72
2022/01/24 10:39:22;;;;;;;73.82;38.35;;;;;;;;;;6261523;28;20595;-72
2022/01/24 10:45:31;;;;;;;69.70;38.85;;;;;;;;;;6256831;28;20445;-73
2022/01/24 10:48:33;;;;;;;72.05;35.42;;;;;;;;;;6265867;28;20061;-74
2022/01/24 10:51:40;;;;;;;43.30;23.48;;;;;;;;;;6265615;28;20037;-74
2022/01/24 10:54:41;;;;;;;46.72;20.98;;;;;;;;;;6266915;28;20033;-74
2022/01/24 10:57:42;;;;;;;38.78;19.83;;;;;;;;;;6243736;28;20099;-74
2022/01/24 11:00:44;;;;;;;42.15;19.13;;;;;;;;;;6263944;28;20821;-76
2022/01/24 11:03:56;;;;;;;42.85;19.55;;;;;;;;;;6265797;28;20497;-76
2022/01/24 11:06:58;;;;;;;42.10;20.17;;;;;;;;;;6229993;28;20024;-78
2022/01/24 11:10:01;;;;;;;31.70;17.27;;;;;;;;;;6258348;28;20384;-79
2022/01/24 11:13:05;;;;;;;38.88;19.40;;;;;;;;;;6224615;28;20412;-78
2022/01/24 11:16:05;;;;;;;45.35;20.77;;;;;;;;;;6224598;28;20021;-79
2022/01/24 11:19:11;;;;;;;35.47;18.17;;;;;;;;;;6256817;28;20025;-79
2022/01/24 11:22:26;;;;;;;35.65;16.08;;;;;;;;;;6248129;28;20585;-79
2022/01/24 11:25:31;;;;;;;43.45;20.63;;;;;;;;;;6242034;28;20017;-79
2022/01/24 11:28:32;;;;;;;41.97;21.33;;;;;;;;;;6241861;28;20548;-79
2022/01/24 11:31:41;;;;;;;41.35;19.98;;;;;;;;;;6245264;28;20029;-79
2022/01/24 11:34:47;;;;;;;54.20;26.58;;;;;;;;;;6259644;28;20041;-78
2022/01/24 11:37:47;;;;;;;39.25;16.75;;;;;;;;;;6249290;28;20029;-79
2022/01/24 11:40:48;;;;;;;44.83;23.58;;;;;;;;;;6243041;28;20033;-79
2022/01/24 11:43:51;;;;;;;50.92;24.63;;;;;;;;;;6248265;28;20024;-79
2022/01/24 11:46:55;;;;;;;45.00;21.15;;;;;;;;;;6249511;28;20037;-79
2022/01/24 11:49:56;;;;;;;49.08;22.42;;;;;;;;;;6263725;28;20029;-79
2022/01/24 11:52:56;;;;;;;56.25;26.27;;;;;;;;;;6239492;28;20079;-79
2022/01/24 11:56:15;;;;;;;48.05;23.95;;;;;;;;;;6244249;28;20025;-78
2022/01/24 11:59:23;;;;;;;20.95;10.02;;;;;;;;;;6257778;28;20377;-79
2022/01/24 12:02:24;;;;;;;41.33;17.05;;;;;;;;;;6245004;28;20024;-78
2022/01/24 12:05:25;;;;;;;39.35;16.33;;;;;;;;;;6258610;28;20025;-79
2022/01/24 12:08:31;;;;;;;33.28;13.52;;;;;;;;;;6241833;28;20029;-79
2022/01/24 12:11:35;;;;;;;34.63;15.27;;;;;;;;;;6242494;28;20025;-78
2022/01/24 12:14:36;;;;;;;39.60;17.00;;;;;;;;;;6251222;28;20035;-78
2022/01/24 12:17:48;;;;;;;29.50;12.63;;;;;;;;;;6238674;28;20079;-79
2022/01/24 12:20:53;;;;;;;26.90;13.27;;;;;;;;;;6242315;28;20021;-78
2022/01/24 12:24:04;;;;;;;34.00;14.90;;;;;;;;;;6230015;28;20020;-78
2022/01/24 12:27:05;;;;;;;33.42;15.02;;;;;;;;;;6246475;28;20039;-78
2022/01/24 12:30:05;;;;;;;42.47;20.15;;;;;;;;;;6251725;28;20049;-78
2022/01/24 12:33:05;;;;;;;39.75;18.17;;;;;;;;;;6248590;28;20111;-78
2022/01/24 12:36:07;;;;;;;34.20;15.98;;;;;;;;;;6244935;28;20107;-78
2022/01/24 12:39:08;;;;;;;33.15;14.95;;;;;;;;;;6266968;28;20388;-79
2022/01/24 12:42:18;;;;;;;30.55;15.15;;;;;;;;;;6266726;28;20055;-79
2022/01/24 12:48:41;;;;;;;23.27;13.20;;;;;;;;;;6270913;28;20036;-78
2022/01/24 12:51:41;;;;;;;28.90;14.90;;;;;;;;;;6281123;28;20590;-78
2022/01/24 12:54:46;;;;;;;30.10;13.70;;;;;;;;;;6276146;28;20298;-79
2022/01/24 12:57:46;;;;;;;33.78;16.75;;;;;;;;;;6269970;28;20282;-79
2022/01/24 13:00:47;;;;;;;29.77;15.03;;;;;;;;;;6267664;28;20063;-78
2022/01/24 13:03:49;;;;;;;32.03;15.52;;;;;;;;;;6241353;28;20279;-79
2022/01/24 13:06:49;;;;;;;34.95;16.08;;;;;;;;;;6246439;28;20021;-79
2022/01/24 13:09:49;;;;;;;34.08;16.90;;;;;;;;;;6258592;28;20021;-79
2022/01/24 13:13:04;;;;;;;49.13;20.63;;;;;;;;;;6243827;28;20037;-79
2022/01/24 13:22:51;;;;;;;39.42;17.70;;;;;;;;;;6259550;28;20033;-78
2022/01/24 13:25:52;;;;;;;32.30;17.63;;;;;;;;;;6246737;28;20116;-78
2022/01/24 13:29:05;;;;;;;41.78;17.42;;;;;;;;;;6239305;28;20516;-78
2022/01/24 13:32:05;;;;;;;36.00;17.25;;;;;;;;;;6261596;28;20060;-79
2022/01/24 13:35:13;;;;;;;36.67;16.33;;;;;;;;;;6247668;28;20031;-78
2022/01/24 13:38:25;;;;;;;38.65;18.90;;;;;;;;;;6259566;28;20123;-78
2022/01/24 13:41:26;;;;;;;30.80;15.02;;;;;;;;;;6244855;28;20017;-78
2022/01/24 13:44:26;;;;;;;41.42;19.30;;;;;;;;;;6244965;28;20026;-78
2022/01/24 13:47:26;;;;;;;40.23;20.43;;;;;;;;;;6233348;28;20075;-78
2022/01/24 13:50:27;;;;;;;36.80;17.33;;;;;;;;;;6242877;28;20629;-78
2022/01/24 13:53:36;;;;;;;41.58;16.95;;;;;;;;;;6250300;28;20286;-78
2022/01/24 13:57:04;;;;;;;39.83;19.92;;;;;;;;;;6250090;28;20497;-78
2022/01/24 14:00:06;;;;;;;49.65;21.77;;;;;;;;;;6249491;28;20036;-78
2022/01/24 14:03:07;;;;;;;36.40;16.17;;;;;;;;;;6262211;28;20855;-78
2022/01/24 14:06:10;;;;;;;46.97;20.88;;;;;;;;;;6267247;28;20028;-78
2022/01/24 14:09:12;;;;;;;39.58;19.52;;;;;;;;;;6267865;28;20021;-78
2022/01/24 14:12:14;;;;;;;33.78;17.23;;;;;;;;;;6258921;28;20078;-78
2022/01/24 14:15:22;;;;;;;41.85;19.25;;;;;;;;;;6245321;28;20116;-78
2022/01/24 14:18:28;;;;;;;34.42;16.90;;;;;;;;;;6238190;28;20393;-78
2022/01/24 14:21:28;;;;;;;35.30;14.90;;;;;;;;;;6247611;28;20028;-78
2022/01/24 14:24:41;;;;;;;34.65;14.20;;;;;;;;;;6230530;28;20021;-78
2022/01/24 14:27:44;;;;;;;35.88;14.85;;;;;;;;;;6235110;28;20137;-78
2022/01/24 14:30:46;;;;;;;40.47;19.50;;;;;;;;;;6266965;28;20025;-77
2022/01/24 14:33:46;;;;;;;38.60;18.25;;;;;;;;;;6264715;28;20453;-77
2022/01/24 14:36:53;;;;;;;47.28;20.83;;;;;;;;;;6260868;28;20028;-78
2022/01/24 14:39:54;;;;;;;39.13;16.65;;;;;;;;;;6248615;28;20031;-77
2022/01/24 14:44:52;;;;;;;51.80;24.67;;;;;;;;;;6238197;28;20025;-78
2022/01/24 14:46:19;;;;;;;24.80;14.73;;;;;;;;;;6244728;28;20033;-78
2022/01/24 14:49:22;;;;;;;38.20;18.55;;;;;;;;;;6242952;28;20059;-78
2022/01/24 14:52:26;;;;;;;42.65;18.40;;;;;;;;;;6248488;28;20032;-78
2022/01/24 14:55:26;;;;;;;44.65;20.45;;;;;;;;;;6262381;28;20018;-78
2022/01/24 14:58:26;;;;;;;35.25;16.55;;;;;;;;;;6224237;28;20022;-78
2022/01/24 15:01:27;;;;;;;33.13;16.67;;;;;;;;;;6256013;28;20428;-78
2022/01/24 15:04:27;;;;;;;37.13;16.48;;;;;;;;;;6227651;28;20106;-78
2022/01/24 15:07:27;;;;;;;41.73;19.83;;;;;;;;;;6256604;28;20036;-78
2022/01/24 15:10:28;;;;;;;39.45;17.13;;;;;;;;;;6261122;28;20600;-78
2022/01/24 15:13:36;;;;;;;44.38;21.08;;;;;;;;;;6244425;28;20032;-78
2022/01/24 15:17:01;;;;;;;21.17;8.32;;;;;;;;;;6239736;28;20532;-78
2022/01/24 15:26:39;;;;;;;37.53;19.50;;;;;;;;;;6250672;28;20025;-78
2022/01/24 15:29:39;;;;;;;55.20;24.57;;;;;;;;;;6245692;28;20128;-78
2022/01/24 15:32:40;;;;;;;26.20;12.57;;;;;;;;;;6244430;28;20263;-79
2022/01/24 15:35:40;;;;;;;34.03;16.83;;;;;;;;;;6232022;28;20104;-78
2022/01/24 15:38:40;;;;;;;38.20;16.33;;;;;;;;;;6239968;28;20025;-78
2022/01/24 15:41:47;;;;;;;36.70;16.93;;;;;;;;;;6244243;28;20029;-78
2022/01/24 15:47:58;;;;;;;65.72;29.65;;;;;;;;;;6255865;28;20044;-78
2022/01/24 15:50:58;;;;;;;70.95;30.30;;;;;;;;;;6253632;28;20033;-78
2022/01/24 15:54:02;;;;;;;62.27;26.93;;;;;;;;;;6236581;28;20248;-78
2022/01/24 16:00:22;;;;;;;41.05;21.55;;;;;;;;;;6253760;28;20412;-78
2022/01/24 16:03:22;;;;;;;61.45;25.08;;;;;;;;;;6248448;28;20495;-78
2022/01/24 16:06:23;;;;;;;62.60;22.63;;;;;;;;;;6258202;28;20018;-78
2022/01/24 16:09:23;;;;;;;90.30;34.30;;;;;;;;;;6227886;28;20482;-77
2022/01/24 16:12:24;;;;;;;57.87;24.37;;;;;;;;;;6224035;28;20116;-78
2022/01/24 16:15:26;;;;;;;59.00;24.83;;;;;;;;;;6223758;28;20283;-78
2022/01/24 16:18:26;;;;;;;82.10;32.17;;;;;;;;;;6242762;28;20143;-78
2022/01/24 16:21:37;;;;;;;59.45;27.42;;;;;;;;;;6243426;28;20345;-77
2022/01/24 16:27:38;;;;;;;69.00;26.40;;;;;;;;;;6259367;28;20060;-77
2022/01/24 16:30:39;;;;;;;57.23;28.63;;;;;;;;;;6261347;28;20052;-76
2022/01/24 16:33:40;;;;;;;41.47;19.23;;;;;;;;;;6257019;28;20278;-77
2022/01/24 16:36:40;;;;;;;27.98;17.25;;;;;;;;;;6258931;28;20021;-77
2022/01/24 16:39:41;;;;;;;49.63;18.60;;;;;;;;;;6271430;28;20047;-77
2022/01/24 16:43:06;;;;;;;48.58;18.60;;;;;;;;;;6243535;28;20097;-77
2022/01/24 16:49:05;;;;;;;51.58;24.02;;;;;;;;;;6268266;28;20146;-77
2022/01/24 16:52:06;;;;;;;61.20;25.23;;;;;;;;;;6270351;28;20017;-76
2022/01/24 16:55:08;;;;;;;54.60;25.50;;;;;;;;;;6270269;28;20436;-77
2022/01/24 16:58:08;;;;;;;46.65;17.95;;;;;;;;;;6244321;28;20025;-76
2022/01/24 17:01:09;;;;;;;45.80;21.42;;;;;;;;;;6239137;28;20036;-77
2022/01/24 17:04:09;;;;;;;56.90;24.83;;;;;;;;;;6259140;28;20425;-77
2022/01/24 17:07:09;;;;;;;83.57;33.55;;;;;;;;;;6235676;28;20031;-77
2022/01/24 17:10:09;;;;;;;80.20;33.77;;;;;;;;;;6225902;28;20025;-77
2022/01/24 17:13:10;;;;;;;36.70;13.95;;;;;;;;;;6254722;28;20260;-77
2022/01/24 17:16:12;;;;;;;79.93;33.63;;;;;;;;;;6251603;28;20100;-77
2022/01/24 17:19:13;;;;;;;50.83;24.52;;;;;;;;;;6247593;28;20074;-77
2022/01/24 17:22:13;;;;;;;79.88;35.53;;;;;;;;;;6235853;28;20021;-77
2022/01/24 17:25:13;;;;;;;82.90;34.40;;;;;;;;;;6251147;28;20012;-77
2022/01/24 17:28:13;;;;;;;69.53;31.02;;;;;;;;;;6258554;28;20045;-77
2022/01/24 17:31:14;;;;;;;70.97;30.02;;;;;;;;;;6252127;28;20029;-77
2022/01/24 17:34:14;;;;;;;76.68;32.17;;;;;;;;;;6240937;28;20051;-77
2022/01/24 17:37:14;;;;;;;82.63;36.33;;;;;;;;;;6230263;28;20026;-76
2022/01/24 17:40:15;;;;;;;76.65;32.28;;;;;;;;;;6241591;28;20410;-76
2022/01/24 17:43:15;;;;;;;80.85;38.90;;;;;;;;;;6237664;28;20504;-76
2022/01/24 17:46:16;;;;;;;97.00;40.22;;;;;;;;;;6252532;28;20389;-76
2022/01/24 17:49:16;;;;;;;73.93;36.80;;;;;;;;;;6241254;28;20036;-76
2022/01/24 17:52:18;;;;;;;81.27;39.83;;;;;;;;;;6262778;28;20109;-76
2022/01/24 17:55:18;;;;;;;;;;;;;;;;;;6269318;28;20291;-76
2022/01/24 17:58:19;;;;;;;74.05;30.73;;;;;;;;;;6270038;28;19958;-76
2022/01/24 18:01:19;;;;;;;83.40;39.88;;;;;;;;;;6251388;28;20047;-76
2022/01/24 18:04:21;;;;;;;118.65;48.88;;;;;;;;;;6269681;28;20051;-76
2022/01/24 18:07:21;;;;;;;;;;;;;;;;;;6227511;28;20539;-76
2022/01/24 18:10:22;;;;;;;127.30;59.00;;;;;;;;;;6253576;28;20383;-76
2022/01/24 18:13:22;;;;;;;91.15;40.65;;;;;;;;;;6258955;28;20488;-76
2022/01/24 18:16:23;;;;;;;72.40;33.23;;;;;;;;;;6250180;28;20086;-76
2022/01/24 18:19:23;;;;;;;82.33;40.00;;;;;;;;;;6250788;28;20628;-76
2022/01/24 18:22:23;;;;;;;74.05;33.17;;;;;;;;;;6230993;28;20300;-76
2022/01/24 18:25:24;;;;;;;83.57;39.20;;;;;;;;;;6233509;28;20029;-75
2022/01/24 18:28:24;;;;;;;73.47;33.92;;;;;;;;;;6247004;28;20348;-75
2022/01/24 18:31:24;;;;;;;91.50;40.93;;;;;;;;;;6231260;28;20538;-76
2022/01/24 18:34:25;;;;;;;75.30;34.78;;;;;;;;;;6244999;28;20252;-75
2022/01/24 18:37:25;;;;;;;101.73;46.90;;;;;;;;;;6244703;28;20168;-75
2022/01/24 18:40:26;;;;;;;87.18;39.40;;;;;;;;;;6232243;28;20366;-75
2022/01/24 18:43:28;;;;;;;72.72;36.15;;;;;;;;;;6239523;28;20040;-75
2022/01/24 18:46:28;;;;;;;83.05;38.22;;;;;;;;;;6261527;28;20017;-75
2022/01/24 18:49:28;;;;;;;85.88;41.00;;;;;;;;;;6235190;28;20589;-75
2022/01/24 18:52:29;;;;;;;71.03;36.40;;;;;;;;;;6251305;28;20029;-75
2022/01/24 18:55:29;;;;;;;82.75;35.92;;;;;;;;;;6256330;28;20549;-75
2022/01/24 18:58:29;;;;;;;83.07;38.90;;;;;;;;;;6254102;28;20563;-75
2022/01/24 19:01:29;;;;;;;58.92;29.75;;;;;;;;;;6258254;28;20164;-75
2022/01/24 19:04:30;;;;;;;82.43;39.03;;;;;;;;;;6256355;28;20107;-75
2022/01/24 19:07:30;;;;;;;87.18;42.35;;;;;;;;;;6241107;28;20290;-75
2022/01/24 19:10:31;;;;;;;69.20;32.07;;;;;;;;;;6252434;28;20070;-76
2022/01/24 19:13:31;;;;;;;87.65;42.00;;;;;;;;;;6236458;28;20278;-75
2022/01/24 19:16:32;;;;;;;71.60;32.37;;;;;;;;;;6242796;28;20080;-75
2022/01/24 19:19:45;;;;;;;101.10;46.95;;;;;;;;;;6259812;28;20762;-76
2022/01/24 19:26:08;;;;;;;91.70;37.35;;;;;;;;;;6265025;28;20033;-76
2022/01/24 19:29:08;;;;;;;67.35;29.92;;;;;;;;;;6235411;28;20052;-76
2022/01/24 19:32:09;;;;;;;93.78;45.33;;;;;;;;;;6253137;28;20420;-76
2022/01/24 19:35:10;;;;;;;93.93;45.50;;;;;;;;;;6247698;28;20373;-76
2022/01/24 19:38:10;;;;;;;113.38;48.75;;;;;;;;;;6226574;28;20035;-77
2022/01/24 19:41:10;;;;;;;107.63;48.70;;;;;;;;;;6260269;28;20017;-76
2022/01/24 19:44:11;;;;;;;111.30;53.05;;;;;;;;;;6252369;28;20021;-75
2022/01/24 19:47:11;;;;;;;112.65;53.15;;;;;;;;;;6245763;28;20110;-76
2022/01/24 19:50:11;;;;;;;152.77;65.40;;;;;;;;;;6249017;28;20017;-76